sensor_id;sensor_type;location;lat;lon;timestamp;temperature;humidity
7846;DHT22;3968;51.424;6.788;2022-08-30T00:01:12;19.80;99.90
7846;DHT22;3968;51.424;6.788;2022-08-30T00:03:41;19.80;99.90
7846;DHT22;3968;51.424;6.788;2022-08-30T00:06:08;19.80;99.90
7846;DHT22;3968;51.424;6.788;2022-08-30T00:08:34;19.80;99.90
7846;DHT22;3968;51.424;6.788;2022-08-30T00:11:02;19.80;99.90
7846;DHT22;3968;51.424;6.788;2022-08-30T00:13:29;19.80;99.90
7846;DHT22;3968;51.424;6.788;2022-08-30T00:15:55;19.70;99.90
7846;DHT22;3968;51.424;6.788;2022-08-30T00:18:21;19.70;99.90
7846;DHT22;3968;51.424;6.788;2022-08-30T00:20:48;19.70;99.90
7846;DHT22;3968;51.424;6.788;2022-08-30T00:23:15;19.80;99.90
7846;DHT22;3968;51.424;6.788;2022-08-30T00:25:42;19.70;99.90
7846;DHT22;3968;51.424;6.788;2022-08-30T00:28:09;19.70;99.90
7846;DHT22;3968;51.424;6.788;2022-08-30T00:30:35;19.60;99.90
7846;DHT22;3968;51.424;6.788;2022-08-30T00:33:01;19.50;99.90
7846;DHT22;3968;51.424;6.788;2022-08-30T00:35:27;19.50;99.90
7846;DHT22;3968;51.424;6.788;2022-08-30T00:37:52;19.40;99.90
7846;DHT22;3968;51.424;6.788;2022-08-30T00:40:19;19.40;99.90
7846;DHT22;3968;51.424;6.788;2022-08-30T00:42:46;19.50;99.90
7846;DHT22;3968;51.424;6.788;2022-08-30T00:45:21;19.40;99.90
7846;DHT22;3968;51.424;6.788;2022-08-30T00:47:48;19.50;99.90
7846;DHT22;3968;51.424;6.788;2022-08-30T00:50:16;19.40;99.90
7846;DHT22;3968;51.424;6.788;2022-08-30T00:52:45;19.30;99.90
7846;DHT22;3968;51.424;6.788;2022-08-30T00:55:13;19.30;99.90
7846;DHT22;3968;51.424;6.788;2022-08-30T00:57:42;19.30;99.90
7846;DHT22;3968;51.424;6.788;2022-08-30T01:00:10;19.20;99.90
7846;DHT22;3968;51.424;6.788;2022-08-30T01:02:36;19.20;99.90
7846;DHT22;3968;51.424;6.788;2022-08-30T01:05:06;19.20;99.90
7846;DHT22;3968;51.424;6.788;2022-08-30T01:07:33;19.20;99.90
7846;DHT22;3968;51.424;6.788;2022-08-30T01:10:00;19.20;99.90
7846;DHT22;3968;51.424;6.788;2022-08-30T01:12:27;19.20;99.90
7846;DHT22;3968;51.424;6.788;2022-08-30T01:14:54;19.10;99.90
7846;DHT22;3968;51.424;6.788;2022-08-30T01:17:20;19.10;99.90
7846;DHT22;3968;51.424;6.788;2022-08-30T01:24:46;19.10;99.90
7846;DHT22;3968;51.424;6.788;2022-08-30T01:27:14;19.10;99.90
7846;DHT22;3968;51.424;6.788;2022-08-30T01:29:40;19.10;99.90
7846;DHT22;3968;51.424;6.788;2022-08-30T01:32:15;19.10;99.90
7846;DHT22;3968;51.424;6.788;2022-08-30T01:34:43;19.00;99.90
7846;DHT22;3968;51.424;6.788;2022-08-30T01:37:09;19.00;99.90
7846;DHT22;3968;51.424;6.788;2022-08-30T01:39:35;19.00;99.90
7846;DHT22;3968;51.424;6.788;2022-08-30T01:42:02;19.00;99.90
7846;DHT22;3968;51.424;6.788;2022-08-30T01:44:28;18.90;99.90
7846;DHT22;3968;51.424;6.788;2022-08-30T01:46:54;18.90;99.90
7846;DHT22;3968;51.424;6.788;2022-08-30T01:49:19;18.90;99.90
7846;DHT22;3968;51.424;6.788;2022-08-30T01:51:45;18.90;99.90
7846;DHT22;3968;51.424;6.788;2022-08-30T01:54:11;18.80;99.90
7846;DHT22;3968;51.424;6.788;2022-08-30T01:56:37;18.80;99.90
7846;DHT22;3968;51.424;6.788;2022-08-30T01:59:03;18.80;99.90
7846;DHT22;3968;51.424;6.788;2022-08-30T02:01:32;18.80;99.90
7846;DHT22;3968;51.424;6.788;2022-08-30T02:04:00;18.80;99.90
7846;DHT22;3968;51.424;6.788;2022-08-30T02:06:25;18.70;99.90
7846;DHT22;3968;51.424;6.788;2022-08-30T02:08:51;18.70;99.90
7846;DHT22;3968;51.424;6.788;2022-08-30T02:11:17;18.70;99.90
7846;DHT22;3968;51.424;6.788;2022-08-30T02:13:44;18.70;99.90
7846;DHT22;3968;51.424;6.788;2022-08-30T02:16:14;18.70;99.90
7846;DHT22;3968;51.424;6.788;2022-08-30T02:18:40;18.70;99.90
7846;DHT22;3968;51.424;6.788;2022-08-30T02:21:07;18.70;99.90
7846;DHT22;3968;51.424;6.788;2022-08-30T02:23:33;18.70;99.90
7846;DHT22;3968;51.424;6.788;2022-08-30T02:25:59;18.70;99.90
7846;DHT22;3968;51.424;6.788;2022-08-30T02:28:26;18.70;99.90
7846;DHT22;3968;51.424;6.788;2022-08-30T02:30:52;18.70;99.90
7846;DHT22;3968;51.424;6.788;2022-08-30T02:33:18;18.70;99.90
7846;DHT22;3968;51.424;6.788;2022-08-30T02:35:43;18.70;99.90
7846;DHT22;3968;51.424;6.788;2022-08-30T02:38:09;18.70;99.90
7846;DHT22;3968;51.424;6.788;2022-08-30T02:40:35;18.70;99.90
7846;DHT22;3968;51.424;6.788;2022-08-30T02:43:00;18.70;99.90
7846;DHT22;3968;51.424;6.788;2022-08-30T02:45:26;18.70;99.90
7846;DHT22;3968;51.424;6.788;2022-08-30T02:47:52;18.70;99.90
7846;DHT22;3968;51.424;6.788;2022-08-30T02:50:21;18.70;99.90
7846;DHT22;3968;51.424;6.788;2022-08-30T02:52:46;18.70;99.90
7846;DHT22;3968;51.424;6.788;2022-08-30T02:55:12;18.70;99.90
7846;DHT22;3968;51.424;6.788;2022-08-30T02:57:38;18.70;99.90
7846;DHT22;3968;51.424;6.788;2022-08-30T03:00:06;18.70;99.90
7846;DHT22;3968;51.424;6.788;2022-08-30T03:02:33;18.70;99.90
7846;DHT22;3968;51.424;6.788;2022-08-30T03:04:59;18.70;99.90
7846;DHT22;3968;51.424;6.788;2022-08-30T03:07:24;18.70;99.90
7846;DHT22;3968;51.424;6.788;2022-08-30T03:09:50;18.70;99.90
7846;DHT22;3968;51.424;6.788;2022-08-30T03:12:15;18.70;99.90
7846;DHT22;3968;51.424;6.788;2022-08-30T03:14:41;18.70;99.90
7846;DHT22;3968;51.424;6.788;2022-08-30T03:17:08;18.70;99.90
7846;DHT22;3968;51.424;6.788;2022-08-30T03:19:35;18.70;99.90
7846;DHT22;3968;51.424;6.788;2022-08-30T03:22:02;18.60;99.90
7846;DHT22;3968;51.424;6.788;2022-08-30T03:24:28;18.60;99.90
7846;DHT22;3968;51.424;6.788;2022-08-30T03:26:54;18.60;99.90
7846;DHT22;3968;51.424;6.788;2022-08-30T03:29:19;18.50;99.90
7846;DHT22;3968;51.424;6.788;2022-08-30T03:31:45;18.40;99.90
7846;DHT22;3968;51.424;6.788;2022-08-30T03:34:11;18.40;99.90
7846;DHT22;3968;51.424;6.788;2022-08-30T03:36:38;18.40;99.90
7846;DHT22;3968;51.424;6.788;2022-08-30T03:39:07;18.40;99.90
7846;DHT22;3968;51.424;6.788;2022-08-30T03:41:33;18.40;99.90
7846;DHT22;3968;51.424;6.788;2022-08-30T03:44:00;18.40;99.90
7846;DHT22;3968;51.424;6.788;2022-08-30T03:46:26;18.40;99.90
7846;DHT22;3968;51.424;6.788;2022-08-30T03:48:52;18.40;99.90
7846;DHT22;3968;51.424;6.788;2022-08-30T03:51:21;18.40;99.90
7846;DHT22;3968;51.424;6.788;2022-08-30T03:53:46;18.40;99.90
7846;DHT22;3968;51.424;6.788;2022-08-30T03:56:12;18.40;99.90
7846;DHT22;3968;51.424;6.788;2022-08-30T03:58:38;18.30;99.90
7846;DHT22;3968;51.424;6.788;2022-08-30T04:01:05;18.30;99.90
7846;DHT22;3968;51.424;6.788;2022-08-30T04:03:31;18.30;99.90
7846;DHT22;3968;51.424;6.788;2022-08-30T04:05:57;18.20;99.90
7846;DHT22;3968;51.424;6.788;2022-08-30T04:08:23;18.20;99.90
7846;DHT22;3968;51.424;6.788;2022-08-30T04:10:50;18.20;99.90
7846;DHT22;3968;51.424;6.788;2022-08-30T04:13:18;18.10;99.90
7846;DHT22;3968;51.424;6.788;2022-08-30T04:15:44;18.10;99.90
7846;DHT22;3968;51.424;6.788;2022-08-30T04:18:09;18.10;99.90
7846;DHT22;3968;51.424;6.788;2022-08-30T04:20:35;18.10;99.90
7846;DHT22;3968;51.424;6.788;2022-08-30T04:23:02;18.10;99.90
7846;DHT22;3968;51.424;6.788;2022-08-30T04:25:28;18.10;99.90
7846;DHT22;3968;51.424;6.788;2022-08-30T04:27:54;18.10;99.90
7846;DHT22;3968;51.424;6.788;2022-08-30T04:30:20;18.10;99.90
7846;DHT22;3968;51.424;6.788;2022-08-30T04:32:45;18.10;99.90
7846;DHT22;3968;51.424;6.788;2022-08-30T04:35:12;18.10;99.90
7846;DHT22;3968;51.424;6.788;2022-08-30T04:37:38;18.00;99.90
7846;DHT22;3968;51.424;6.788;2022-08-30T04:40:05;18.00;99.90
7846;DHT22;3968;51.424;6.788;2022-08-30T04:42:33;18.00;99.90
7846;DHT22;3968;51.424;6.788;2022-08-30T04:45:03;18.00;99.90
7846;DHT22;3968;51.424;6.788;2022-08-30T04:47:29;18.00;99.90
7846;DHT22;3968;51.424;6.788;2022-08-30T04:49:55;18.00;99.90
7846;DHT22;3968;51.424;6.788;2022-08-30T04:52:21;17.90;99.90
7846;DHT22;3968;51.424;6.788;2022-08-30T04:54:47;17.90;99.90
7846;DHT22;3968;51.424;6.788;2022-08-30T04:57:13;18.00;99.90
7846;DHT22;3968;51.424;6.788;2022-08-30T04:59:38;18.00;99.90
7846;DHT22;3968;51.424;6.788;2022-08-30T05:02:04;18.00;99.90
7846;DHT22;3968;51.424;6.788;2022-08-30T05:04:30;18.10;99.90
7846;DHT22;3968;51.424;6.788;2022-08-30T05:06:56;18.00;99.90
7846;DHT22;3968;51.424;6.788;2022-08-30T05:09:21;18.00;99.90
7846;DHT22;3968;51.424;6.788;2022-08-30T05:11:47;18.10;99.90
7846;DHT22;3968;51.424;6.788;2022-08-30T05:14:13;18.00;99.90
7846;DHT22;3968;51.424;6.788;2022-08-30T05:16:39;17.90;99.90
7846;DHT22;3968;51.424;6.788;2022-08-30T05:19:06;17.90;99.90
7846;DHT22;3968;51.424;6.788;2022-08-30T05:21:32;17.90;99.90
7846;DHT22;3968;51.424;6.788;2022-08-30T05:23:59;18.00;99.90
7846;DHT22;3968;51.424;6.788;2022-08-30T05:26:28;18.00;99.90
7846;DHT22;3968;51.424;6.788;2022-08-30T05:28:55;18.00;99.90
7846;DHT22;3968;51.424;6.788;2022-08-30T05:31:23;18.10;99.90
7846;DHT22;3968;51.424;6.788;2022-08-30T05:33:50;18.10;99.90
7846;DHT22;3968;51.424;6.788;2022-08-30T05:36:17;18.10;99.90
7846;DHT22;3968;51.424;6.788;2022-08-30T05:38:43;18.10;99.90
7846;DHT22;3968;51.424;6.788;2022-08-30T05:41:09;18.10;99.90
7846;DHT22;3968;51.424;6.788;2022-08-30T05:43:35;18.10;99.90
7846;DHT22;3968;51.424;6.788;2022-08-30T05:46:07;18.10;99.90
7846;DHT22;3968;51.424;6.788;2022-08-30T05:48:33;18.10;99.90
7846;DHT22;3968;51.424;6.788;2022-08-30T05:51:06;18.10;99.90
7846;DHT22;3968;51.424;6.788;2022-08-30T05:53:32;18.20;99.90
7846;DHT22;3968;51.424;6.788;2022-08-30T05:56:04;18.30;99.90
7846;DHT22;3968;51.424;6.788;2022-08-30T05:58:30;18.30;99.90
7846;DHT22;3968;51.424;6.788;2022-08-30T06:00:56;18.30;99.90
7846;DHT22;3968;51.424;6.788;2022-08-30T06:03:22;18.30;99.90
7846;DHT22;3968;51.424;6.788;2022-08-30T06:05:47;18.30;99.90
7846;DHT22;3968;51.424;6.788;2022-08-30T06:08:13;18.30;99.90
7846;DHT22;3968;51.424;6.788;2022-08-30T06:10:39;18.30;99.90
7846;DHT22;3968;51.424;6.788;2022-08-30T06:13:04;18.30;99.90
7846;DHT22;3968;51.424;6.788;2022-08-30T06:15:30;18.30;99.90
7846;DHT22;3968;51.424;6.788;2022-08-30T06:17:56;18.30;99.90
7846;DHT22;3968;51.424;6.788;2022-08-30T06:20:22;18.30;99.90
7846;DHT22;3968;51.424;6.788;2022-08-30T06:22:47;18.40;99.90
7846;DHT22;3968;51.424;6.788;2022-08-30T06:25:13;18.50;99.90
7846;DHT22;3968;51.424;6.788;2022-08-30T06:27:41;18.50;99.90
7846;DHT22;3968;51.424;6.788;2022-08-30T06:30:07;18.50;99.90
7846;DHT22;3968;51.424;6.788;2022-08-30T06:32:35;18.50;99.90
7846;DHT22;3968;51.424;6.788;2022-08-30T06:35:02;18.60;99.90
7846;DHT22;3968;51.424;6.788;2022-08-30T06:37:28;18.60;99.90
7846;DHT22;3968;51.424;6.788;2022-08-30T06:39:53;18.60;99.90
7846;DHT22;3968;51.424;6.788;2022-08-30T06:42:21;18.70;99.90
7846;DHT22;3968;51.424;6.788;2022-08-30T06:44:48;18.70;99.90
7846;DHT22;3968;51.424;6.788;2022-08-30T06:47:13;18.90;99.90
7846;DHT22;3968;51.424;6.788;2022-08-30T06:49:39;18.90;99.90
7846;DHT22;3968;51.424;6.788;2022-08-30T06:52:05;19.00;99.90
7846;DHT22;3968;51.424;6.788;2022-08-30T06:54:30;19.00;99.90
7846;DHT22;3968;51.424;6.788;2022-08-30T06:56:56;19.10;99.90
7846;DHT22;3968;51.424;6.788;2022-08-30T06:59:22;19.20;99.90
7846;DHT22;3968;51.424;6.788;2022-08-30T07:01:47;19.40;99.90
7846;DHT22;3968;51.424;6.788;2022-08-30T07:04:13;19.60;99.90
7846;DHT22;3968;51.424;6.788;2022-08-30T07:06:39;19.60;99.90
7846;DHT22;3968;51.424;6.788;2022-08-30T07:09:04;19.70;99.90
7846;DHT22;3968;51.424;6.788;2022-08-30T07:11:32;19.70;99.90
7846;DHT22;3968;51.424;6.788;2022-08-30T07:13:59;19.70;99.90
7846;DHT22;3968;51.424;6.788;2022-08-30T07:16:25;19.80;99.90
7846;DHT22;3968;51.424;6.788;2022-08-30T07:18:51;19.80;99.90
7846;DHT22;3968;51.424;6.788;2022-08-30T07:21:31;20.00;99.90
7846;DHT22;3968;51.424;6.788;2022-08-30T07:23:58;20.10;99.90
7846;DHT22;3968;51.424;6.788;2022-08-30T07:26:33;20.20;99.90
7846;DHT22;3968;51.424;6.788;2022-08-30T07:29:00;20.30;99.90
7846;DHT22;3968;51.424;6.788;2022-08-30T07:31:27;20.40;99.90
7846;DHT22;3968;51.424;6.788;2022-08-30T07:33:53;20.40;99.90
7846;DHT22;3968;51.424;6.788;2022-08-30T07:36:19;20.40;99.90
7846;DHT22;3968;51.424;6.788;2022-08-30T07:38:47;20.60;99.90
7846;DHT22;3968;51.424;6.788;2022-08-30T07:41:18;20.80;99.90
7846;DHT22;3968;51.424;6.788;2022-08-30T07:43:44;20.80;99.90
7846;DHT22;3968;51.424;6.788;2022-08-30T07:46:09;20.90;99.90
7846;DHT22;3968;51.424;6.788;2022-08-30T07:48:35;21.00;99.90
7846;DHT22;3968;51.424;6.788;2022-08-30T07:51:01;21.00;99.90
7846;DHT22;3968;51.424;6.788;2022-08-30T07:53:29;21.10;99.90
7846;DHT22;3968;51.424;6.788;2022-08-30T07:55:55;21.20;99.90
7846;DHT22;3968;51.424;6.788;2022-08-30T07:58:20;21.30;99.90
7846;DHT22;3968;51.424;6.788;2022-08-30T08:00:46;21.30;99.90
7846;DHT22;3968;51.424;6.788;2022-08-30T08:03:12;21.30;99.90
7846;DHT22;3968;51.424;6.788;2022-08-30T08:05:40;21.40;99.90
7846;DHT22;3968;51.424;6.788;2022-08-30T08:08:06;21.60;99.90
7846;DHT22;3968;51.424;6.788;2022-08-30T08:10:34;21.90;99.90
7846;DHT22;3968;51.424;6.788;2022-08-30T08:13:00;22.00;99.90
7846;DHT22;3968;51.424;6.788;2022-08-30T08:15:26;22.10;99.90
7846;DHT22;3968;51.424;6.788;2022-08-30T08:17:52;22.10;99.90
7846;DHT22;3968;51.424;6.788;2022-08-30T08:20:18;22.00;99.90
7846;DHT22;3968;51.424;6.788;2022-08-30T08:22:43;21.90;99.90
7846;DHT22;3968;51.424;6.788;2022-08-30T08:25:09;21.90;99.90
7846;DHT22;3968;51.424;6.788;2022-08-30T08:27:34;22.00;99.90
7846;DHT22;3968;51.424;6.788;2022-08-30T08:30:00;22.00;99.90
7846;DHT22;3968;51.424;6.788;2022-08-30T08:32:26;22.10;99.90
7846;DHT22;3968;51.424;6.788;2022-08-30T08:34:52;22.20;99.90
7846;DHT22;3968;51.424;6.788;2022-08-30T08:37:17;22.40;99.90
7846;DHT22;3968;51.424;6.788;2022-08-30T08:39:43;22.50;99.90
7846;DHT22;3968;51.424;6.788;2022-08-30T08:42:23;22.60;99.90
7846;DHT22;3968;51.424;6.788;2022-08-30T08:45:00;22.60;99.90
7846;DHT22;3968;51.424;6.788;2022-08-30T08:47:55;22.60;99.90
7846;DHT22;3968;51.424;6.788;2022-08-30T08:50:21;22.70;99.90
7846;DHT22;3968;51.424;6.788;2022-08-30T08:53:04;22.70;99.90
7846;DHT22;3968;51.424;6.788;2022-08-30T08:55:50;22.80;99.90
7846;DHT22;3968;51.424;6.788;2022-08-30T08:58:23;23.00;99.90
7846;DHT22;3968;51.424;6.788;2022-08-30T09:00:50;23.10;99.90
7846;DHT22;3968;51.424;6.788;2022-08-30T09:03:18;23.50;99.90
7846;DHT22;3968;51.424;6.788;2022-08-30T09:05:45;23.70;99.90
7846;DHT22;3968;51.424;6.788;2022-08-30T09:08:14;23.70;99.90
7846;DHT22;3968;51.424;6.788;2022-08-30T09:10:53;23.90;99.90
7846;DHT22;3968;51.424;6.788;2022-08-30T09:13:22;24.00;99.90
7846;DHT22;3968;51.424;6.788;2022-08-30T09:15:49;24.00;99.90
7846;DHT22;3968;51.424;6.788;2022-08-30T09:18:15;24.30;99.90
7846;DHT22;3968;51.424;6.788;2022-08-30T09:20:45;24.80;99.90
7846;DHT22;3968;51.424;6.788;2022-08-30T09:25:55;25.80;99.90
7846;DHT22;3968;51.424;6.788;2022-08-30T09:28:46;26.10;99.90
7846;DHT22;3968;51.424;6.788;2022-08-30T09:31:33;27.20;99.90
7846;DHT22;3968;51.424;6.788;2022-08-30T09:34:17;28.20;99.90
7846;DHT22;3968;51.424;6.788;2022-08-30T09:36:49;29.20;99.90
7846;DHT22;3968;51.424;6.788;2022-08-30T09:39:32;29.60;99.90
7846;DHT22;3968;51.424;6.788;2022-08-30T09:42:19;30.10;97.60
7846;DHT22;3968;51.424;6.788;2022-08-30T09:44:45;30.40;94.00
7846;DHT22;3968;51.424;6.788;2022-08-30T09:47:22;30.80;91.70
7846;DHT22;3968;51.424;6.788;2022-08-30T09:50:05;31.10;90.60
7846;DHT22;3968;51.424;6.788;2022-08-30T10:01:44;31.40;79.40
7846;DHT22;3968;51.424;6.788;2022-08-30T10:04:17;30.60;81.00
7846;DHT22;3968;51.424;6.788;2022-08-30T10:06:53;29.90;85.30
7846;DHT22;3968;51.424;6.788;2022-08-30T10:15:05;31.10;80.20
7846;DHT22;3968;51.424;6.788;2022-08-30T10:23:44;34.70;59.30
7846;DHT22;3968;51.424;6.788;2022-08-30T10:26:30;35.20;55.60
7846;DHT22;3968;51.424;6.788;2022-08-30T10:29:35;35.20;53.80
7846;DHT22;3968;51.424;6.788;2022-08-30T10:32:10;34.70;53.80
7846;DHT22;3968;51.424;6.788;2022-08-30T10:34:50;34.90;52.60
7846;DHT22;3968;51.424;6.788;2022-08-30T10:37:20;35.10;51.70
7846;DHT22;3968;51.424;6.788;2022-08-30T10:39:50;34.90;51.40
7846;DHT22;3968;51.424;6.788;2022-08-30T10:44:52;35.10;49.50
7846;DHT22;3968;51.424;6.788;2022-08-30T10:47:33;34.80;50.10
7846;DHT22;3968;51.424;6.788;2022-08-30T10:50:13;36.20;47.70
7846;DHT22;3968;51.424;6.788;2022-08-30T10:53:00;35.70;47.10
7846;DHT22;3968;51.424;6.788;2022-08-30T10:55:33;34.80;47.60
7846;DHT22;3968;51.424;6.788;2022-08-30T10:58:02;32.90;51.00
7846;DHT22;3968;51.424;6.788;2022-08-30T11:00:42;32.10;53.30
7846;DHT22;3968;51.424;6.788;2022-08-30T11:04:31;31.80;54.70
7846;DHT22;3968;51.424;6.788;2022-08-30T11:14:29;31.30;56.50
7846;DHT22;3968;51.424;6.788;2022-08-30T11:16:55;31.60;56.30
7846;DHT22;3968;51.424;6.788;2022-08-30T11:21:52;31.80;55.80
7846;DHT22;3968;51.424;6.788;2022-08-30T11:57:16;36.20;42.70
7846;DHT22;3968;51.424;6.788;2022-08-30T12:02:51;35.90;41.50
7846;DHT22;3968;51.424;6.788;2022-08-30T12:10:56;34.30;43.70
7846;DHT22;3968;51.424;6.788;2022-08-30T12:16:08;34.30;43.40
7846;DHT22;3968;51.424;6.788;2022-08-30T12:21:32;34.00;44.20
7846;DHT22;3968;51.424;6.788;2022-08-30T12:26:50;33.40;44.60
7846;DHT22;3968;51.424;6.788;2022-08-30T12:29:20;33.10;43.90
7846;DHT22;3968;51.424;6.788;2022-08-30T12:32:02;32.60;44.40
7846;DHT22;3968;51.424;6.788;2022-08-30T12:34:32;32.50;46.10
7846;DHT22;3968;51.424;6.788;2022-08-30T12:37:02;32.80;45.70
7846;DHT22;3968;51.424;6.788;2022-08-30T12:39:40;32.30;46.80
7846;DHT22;3968;51.424;6.788;2022-08-30T12:42:27;31.80;48.10
7846;DHT22;3968;51.424;6.788;2022-08-30T12:44:59;31.70;48.30
7846;DHT22;3968;51.424;6.788;2022-08-30T12:47:42;31.50;48.30
7846;DHT22;3968;51.424;6.788;2022-08-30T12:50:13;31.20;48.50
7846;DHT22;3968;51.424;6.788;2022-08-30T12:52:42;31.30;48.40
7846;DHT22;3968;51.424;6.788;2022-08-30T12:55:18;31.30;48.90
7846;DHT22;3968;51.424;6.788;2022-08-30T13:00:31;31.70;48.10
7846;DHT22;3968;51.424;6.788;2022-08-30T13:05:45;32.10;47.00
7846;DHT22;3968;51.424;6.788;2022-08-30T13:10:50;32.60;46.70
7846;DHT22;3968;51.424;6.788;2022-08-30T13:21:52;31.30;48.00
7846;DHT22;3968;51.424;6.788;2022-08-30T13:24:18;31.00;48.90
7846;DHT22;3968;51.424;6.788;2022-08-30T13:26:44;30.70;49.30
7846;DHT22;3968;51.424;6.788;2022-08-30T13:29:19;30.40;49.80
7846;DHT22;3968;51.424;6.788;2022-08-30T13:31:45;30.40;50.20
7846;DHT22;3968;51.424;6.788;2022-08-30T13:34:11;30.30;50.80
7846;DHT22;3968;51.424;6.788;2022-08-30T13:36:49;30.30;51.10
7846;DHT22;3968;51.424;6.788;2022-08-30T13:39:16;30.40;50.40
7846;DHT22;3968;51.424;6.788;2022-08-30T13:41:42;30.40;50.00
7846;DHT22;3968;51.424;6.788;2022-08-30T13:44:08;30.20;50.10
7846;DHT22;3968;51.424;6.788;2022-08-30T13:46:34;29.90;50.70
7846;DHT22;3968;51.424;6.788;2022-08-30T13:49:08;29.90;50.70
7846;DHT22;3968;51.424;6.788;2022-08-30T13:51:37;29.90;50.80
7846;DHT22;3968;51.424;6.788;2022-08-30T13:54:02;29.60;49.90
7846;DHT22;3968;51.424;6.788;2022-08-30T13:56:29;29.30;50.10
7846;DHT22;3968;51.424;6.788;2022-08-30T13:58:57;29.30;50.70
7846;DHT22;3968;51.424;6.788;2022-08-30T14:01:23;29.40;50.70
7846;DHT22;3968;51.424;6.788;2022-08-30T14:03:49;29.20;51.20
7846;DHT22;3968;51.424;6.788;2022-08-30T14:06:14;28.80;51.50
7846;DHT22;3968;51.424;6.788;2022-08-30T14:08:40;28.70;52.80
7846;DHT22;3968;51.424;6.788;2022-08-30T14:11:06;28.80;52.00
7846;DHT22;3968;51.424;6.788;2022-08-30T14:13:32;28.80;52.30
7846;DHT22;3968;51.424;6.788;2022-08-30T14:16:00;28.90;52.20
7846;DHT22;3968;51.424;6.788;2022-08-30T14:18:27;28.80;52.10
7846;DHT22;3968;51.424;6.788;2022-08-30T14:20:52;28.80;52.50
7846;DHT22;3968;51.424;6.788;2022-08-30T14:23:18;28.70;53.10
7846;DHT22;3968;51.424;6.788;2022-08-30T14:25:44;28.60;54.40
7846;DHT22;3968;51.424;6.788;2022-08-30T14:28:09;28.60;54.90
7846;DHT22;3968;51.424;6.788;2022-08-30T14:30:35;29.00;54.60
7846;DHT22;3968;51.424;6.788;2022-08-30T14:33:00;29.70;53.00
7846;DHT22;3968;51.424;6.788;2022-08-30T14:35:26;29.90;53.00
7846;DHT22;3968;51.424;6.788;2022-08-30T14:37:52;29.90;52.20
7846;DHT22;3968;51.424;6.788;2022-08-30T14:40:18;29.70;52.30
7846;DHT22;3968;51.424;6.788;2022-08-30T14:42:44;29.30;53.10
7846;DHT22;3968;51.424;6.788;2022-08-30T14:45:10;29.20;54.00
7846;DHT22;3968;51.424;6.788;2022-08-30T14:47:36;29.00;54.40
7846;DHT22;3968;51.424;6.788;2022-08-30T14:50:02;28.90;54.80
7846;DHT22;3968;51.424;6.788;2022-08-30T14:52:29;28.90;55.00
7846;DHT22;3968;51.424;6.788;2022-08-30T14:54:54;28.90;55.10
7846;DHT22;3968;51.424;6.788;2022-08-30T14:57:21;28.60;55.50
7846;DHT22;3968;51.424;6.788;2022-08-30T14:59:47;28.40;56.00
7846;DHT22;3968;51.424;6.788;2022-08-30T15:02:13;28.20;56.20
7846;DHT22;3968;51.424;6.788;2022-08-30T15:04:38;27.90;57.00
7846;DHT22;3968;51.424;6.788;2022-08-30T15:07:04;28.00;57.40
7846;DHT22;3968;51.424;6.788;2022-08-30T15:09:29;28.20;57.60
7846;DHT22;3968;51.424;6.788;2022-08-30T15:11:57;28.30;57.10
7846;DHT22;3968;51.424;6.788;2022-08-30T15:14:26;28.10;57.00
7846;DHT22;3968;51.424;6.788;2022-08-30T15:16:53;27.90;57.40
7846;DHT22;3968;51.424;6.788;2022-08-30T15:19:19;27.90;57.90
7846;DHT22;3968;51.424;6.788;2022-08-30T15:21:46;27.80;58.60
7846;DHT22;3968;51.424;6.788;2022-08-30T15:24:19;27.60;58.20
7846;DHT22;3968;51.424;6.788;2022-08-30T15:26:45;27.60;58.10
7846;DHT22;3968;51.424;6.788;2022-08-30T15:29:14;27.50;59.00
7846;DHT22;3968;51.424;6.788;2022-08-30T15:31:41;27.60;59.10
7846;DHT22;3968;51.424;6.788;2022-08-30T15:34:08;27.60;58.60
7846;DHT22;3968;51.424;6.788;2022-08-30T15:36:34;27.70;58.80
7846;DHT22;3968;51.424;6.788;2022-08-30T15:39:00;27.90;58.10
7846;DHT22;3968;51.424;6.788;2022-08-30T15:41:27;28.00;57.30
7846;DHT22;3968;51.424;6.788;2022-08-30T15:43:54;27.90;57.40
7846;DHT22;3968;51.424;6.788;2022-08-30T15:46:33;27.80;57.50
7846;DHT22;3968;51.424;6.788;2022-08-30T15:49:02;27.50;58.30
7846;DHT22;3968;51.424;6.788;2022-08-30T15:51:29;27.40;58.30
7846;DHT22;3968;51.424;6.788;2022-08-30T15:53:58;27.40;58.10
7846;DHT22;3968;51.424;6.788;2022-08-30T15:56:24;27.50;57.90
7846;DHT22;3968;51.424;6.788;2022-08-30T15:58:50;27.60;57.40
7846;DHT22;3968;51.424;6.788;2022-08-30T16:01:16;27.60;57.00
7846;DHT22;3968;51.424;6.788;2022-08-30T16:03:42;27.50;57.00
7846;DHT22;3968;51.424;6.788;2022-08-30T16:06:21;27.50;56.80
7846;DHT22;3968;51.424;6.788;2022-08-30T16:08:50;27.40;56.90
7846;DHT22;3968;51.424;6.788;2022-08-30T16:11:18;27.30;56.90
7846;DHT22;3968;51.424;6.788;2022-08-30T16:13:47;27.10;57.20
7846;DHT22;3968;51.424;6.788;2022-08-30T16:16:13;27.00;57.10
7846;DHT22;3968;51.424;6.788;2022-08-30T16:18:38;26.90;57.30
7846;DHT22;3968;51.424;6.788;2022-08-30T16:21:14;26.80;57.70
7846;DHT22;3968;51.424;6.788;2022-08-30T16:23:42;26.70;58.20
7846;DHT22;3968;51.424;6.788;2022-08-30T16:26:09;26.60;58.60
7846;DHT22;3968;51.424;6.788;2022-08-30T16:28:35;26.50;59.00
7846;DHT22;3968;51.424;6.788;2022-08-30T16:31:03;26.60;59.50
7846;DHT22;3968;51.424;6.788;2022-08-30T16:33:29;26.50;59.50
7846;DHT22;3968;51.424;6.788;2022-08-30T16:35:55;26.50;60.30
7846;DHT22;3968;51.424;6.788;2022-08-30T16:38:23;26.40;60.60
7846;DHT22;3968;51.424;6.788;2022-08-30T16:40:49;26.30;61.80
7846;DHT22;3968;51.424;6.788;2022-08-30T16:43:15;26.10;62.40
7846;DHT22;3968;51.424;6.788;2022-08-30T16:45:41;25.90;63.70
7846;DHT22;3968;51.424;6.788;2022-08-30T16:48:08;25.90;65.10
7846;DHT22;3968;51.424;6.788;2022-08-30T16:50:36;25.70;66.00
7846;DHT22;3968;51.424;6.788;2022-08-30T16:53:03;25.60;68.00
7846;DHT22;3968;51.424;6.788;2022-08-30T16:55:29;25.50;69.50
7846;DHT22;3968;51.424;6.788;2022-08-30T16:57:55;25.40;70.50
7846;DHT22;3968;51.424;6.788;2022-08-30T17:00:21;25.40;71.30
7846;DHT22;3968;51.424;6.788;2022-08-30T17:02:47;25.30;72.30
7846;DHT22;3968;51.424;6.788;2022-08-30T17:05:16;25.20;72.50
7846;DHT22;3968;51.424;6.788;2022-08-30T17:07:42;25.10;73.10
7846;DHT22;3968;51.424;6.788;2022-08-30T17:10:08;25.10;74.30
7846;DHT22;3968;51.424;6.788;2022-08-30T17:12:34;25.10;74.40
7846;DHT22;3968;51.424;6.788;2022-08-30T17:14:59;25.10;75.00
7846;DHT22;3968;51.424;6.788;2022-08-30T17:17:25;25.10;75.40
7846;DHT22;3968;51.424;6.788;2022-08-30T17:19:50;25.10;75.20
7846;DHT22;3968;51.424;6.788;2022-08-30T17:22:16;25.10;74.20
7846;DHT22;3968;51.424;6.788;2022-08-30T17:24:42;25.10;74.70
7846;DHT22;3968;51.424;6.788;2022-08-30T17:27:07;25.10;74.60
7846;DHT22;3968;51.424;6.788;2022-08-30T17:29:33;25.00;73.70
7846;DHT22;3968;51.424;6.788;2022-08-30T17:31:59;25.00;73.40
7846;DHT22;3968;51.424;6.788;2022-08-30T17:34:25;24.90;73.20
7846;DHT22;3968;51.424;6.788;2022-08-30T17:36:52;24.80;73.20
7846;DHT22;3968;51.424;6.788;2022-08-30T17:39:19;24.80;73.70
7846;DHT22;3968;51.424;6.788;2022-08-30T17:41:45;24.80;73.30
7846;DHT22;3968;51.424;6.788;2022-08-30T17:44:11;24.70;73.30
7846;DHT22;3968;51.424;6.788;2022-08-30T17:46:37;24.70;72.70
7846;DHT22;3968;51.424;6.788;2022-08-30T17:49:04;24.60;72.70
7846;DHT22;3968;51.424;6.788;2022-08-30T17:51:30;24.60;72.70
7846;DHT22;3968;51.424;6.788;2022-08-30T17:53:57;24.50;73.20
7846;DHT22;3968;51.424;6.788;2022-08-30T17:56:22;24.40;73.80